Aviation Digital Data Service (ADDS)

Output produced by METARs form (1933 UTC 17 September 2014)
found at http://aviationweather.gov/adds/metars/
 
KBGR 171729Z 1718/1818 VRB03KT P6SM SCT050 
     FM180000 18005KT P6SM SCT250 
     FM180600 VRB03KT 3SM BR BKN003 
     FM181400 VRB03KT P6SM BKN045 
     FM181500 29005KT P6SM SCT250